createdAt,value
2018-01-17T00:00:15.400Z,2.9
2018-01-17T00:01:17.108Z,3.7
2018-01-17T00:02:19.193Z,3.6
2018-01-17T00:03:21.251Z,3.8
2018-01-17T00:04:22.991Z,3.7
2018-01-17T00:05:24.789Z,3.5
2018-01-17T00:06:26.527Z,3.7
2018-01-17T00:07:28.341Z,4.1
2018-01-17T00:08:30.157Z,3.4
2018-01-17T00:09:31.888Z,3.5
2018-01-17T00:10:33.552Z,3.8
2018-01-17T00:11:35.332Z,3.5
2018-01-17T00:12:37.209Z,3.7
2018-01-17T00:13:38.951Z,3.7
2018-01-17T00:14:41.074Z,3.6
2018-01-17T00:15:42.774Z,3.4
2018-01-17T00:16:44.873Z,3.3
2018-01-17T00:17:47.166Z,3.6
2018-01-17T00:18:49.006Z,3.2
2018-01-17T00:19:50.733Z,3.3
2018-01-17T00:20:52.677Z,3.2
2018-01-17T00:21:54.330Z,3.2
2018-01-17T00:22:56.068Z,2.8
2018-01-17T00:23:57.752Z,2.7
2018-01-17T00:24:59.798Z,2.8
2018-01-17T00:26:01.549Z,2.9
2018-01-17T00:27:03.682Z,2.9
2018-01-17T00:28:05.815Z,3.0
2018-01-17T00:29:07.820Z,3.0
2018-01-17T00:30:09.559Z,2.6
2018-01-17T00:31:11.973Z,3.1
2018-01-17T00:32:14.199Z,2.8
2018-01-17T00:33:15.963Z,2.9
2018-01-17T00:34:17.754Z,2.7
2018-01-17T00:35:19.725Z,2.9
2018-01-17T00:36:21.367Z,3.0
2018-01-17T00:37:23.021Z,2.8
2018-01-17T00:38:24.768Z,3.0
2018-01-17T00:39:26.543Z,2.9
2018-01-17T00:40:28.330Z,2.8
2018-01-17T00:41:30.067Z,2.8
2018-01-17T00:42:31.845Z,2.7
2018-01-17T00:43:33.535Z,2.8
2018-01-17T00:44:35.695Z,2.5
2018-01-17T00:45:37.801Z,2.4
2018-01-17T00:46:39.495Z,2.8
2018-01-17T00:47:41.141Z,2.8
2018-01-17T00:48:43.212Z,2.7
2018-01-17T00:49:44.921Z,2.5
2018-01-17T00:50:46.682Z,3.0
2018-01-17T00:51:48.430Z,2.5
2018-01-17T00:52:50.156Z,2.8
2018-01-17T00:53:51.821Z,2.5
2018-01-17T00:54:53.536Z,2.6
2018-01-17T00:55:55.285Z,2.7
2018-01-17T00:56:56.944Z,2.5
2018-01-17T00:57:58.664Z,3.0
2018-01-17T00:59:00.503Z,2.6
2018-01-17T01:00:02.680Z,2.4
2018-01-17T01:01:04.441Z,2.3
2018-01-17T01:02:06.191Z,2.4
2018-01-17T01:03:09.122Z,2.7
2018-01-17T01:04:10.781Z,2.1
2018-01-17T01:05:12.602Z,1.9
2018-01-17T01:06:14.443Z,2.3
2018-01-17T01:07:16.366Z,1.8
2018-01-17T01:08:18.070Z,1.9
2018-01-17T01:09:19.787Z,2.1
2018-01-17T01:10:21.757Z,2.0
2018-01-17T01:11:23.826Z,1.6
2018-01-17T01:12:25.624Z,1.7
2018-01-17T01:13:27.330Z,1.7
2018-01-17T01:14:29.048Z,1.4
2018-01-17T01:15:30.923Z,1.8
2018-01-17T01:16:32.605Z,1.8
2018-01-17T01:17:34.739Z,1.5
2018-01-17T01:18:36.371Z,1.5
2018-01-17T01:19:38.568Z,1.9
2018-01-17T01:20:40.280Z,1.5
2018-01-17T01:21:41.969Z,1.5
2018-01-17T01:22:43.680Z,1.5
2018-01-17T01:23:45.342Z,1.7
2018-01-17T01:24:47.470Z,1.5
2018-01-17T01:25:49.140Z,1.5
2018-01-17T01:26:50.933Z,1.6
2018-01-17T01:27:52.622Z,1.5
2018-01-17T01:28:54.297Z,1.5
2018-01-17T01:29:56.592Z,1.4
2018-01-17T01:30:58.360Z,1.6
2018-01-17T01:32:00.127Z,1.5
2018-01-17T01:33:02.175Z,1.5
2018-01-17T01:34:03.948Z,1.4
2018-01-17T01:35:06.071Z,1.5
2018-01-17T01:36:08.345Z,1.4
2018-01-17T01:37:10.385Z,1.6
2018-01-17T01:38:12.130Z,1.3
2018-01-17T01:39:13.836Z,1.7
2018-01-17T01:40:15.580Z,1.5
2018-01-17T01:41:17.278Z,1.4
2018-01-17T01:42:19.347Z,1.4
2018-01-17T01:43:21.078Z,1.3
2018-01-17T01:44:22.791Z,1.4
2018-01-17T01:45:24.534Z,1.8
2018-01-17T01:46:26.664Z,1.6
2018-01-17T01:47:29.022Z,1.5
2018-01-17T01:48:30.763Z,1.4
2018-01-17T01:49:32.523Z,1.3
2018-01-17T01:50:34.203Z,1.2
2018-01-17T01:51:36.055Z,1.3
2018-01-17T01:52:37.799Z,1.4
2018-01-17T01:53:39.539Z,1.3
2018-01-17T01:54:41.301Z,1.2
2018-01-17T01:55:43.071Z,1.2
2018-01-17T01:56:44.810Z,1.3
2018-01-17T01:57:46.549Z,1.1
2018-01-17T01:58:48.230Z,1.3
2018-01-17T01:59:49.989Z,1.5
2018-01-17T02:00:51.778Z,1.2
2018-01-17T02:01:53.509Z,1.3
2018-01-17T02:02:55.240Z,1.4
2018-01-17T02:03:57.093Z,1.2
2018-01-17T02:04:58.804Z,1.4
2018-01-17T02:06:00.622Z,1.6
2018-01-17T02:07:02.331Z,1.7
2018-01-17T02:08:04.443Z,1.5
2018-01-17T02:09:06.599Z,1.6
2018-01-17T02:10:08.702Z,1.7
2018-01-17T02:11:10.494Z,1.9
2018-01-17T02:12:12.189Z,1.7
2018-01-17T02:13:14.378Z,1.9
2018-01-17T02:14:16.106Z,1.8
2018-01-17T02:15:18.051Z,2.0
2018-01-17T02:16:19.775Z,1.9
2018-01-17T02:17:21.545Z,2.5
2018-01-17T02:18:23.628Z,2.1
2018-01-17T02:19:25.398Z,2.0
2018-01-17T02:20:27.149Z,2.1
2018-01-17T02:21:29.266Z,2.2
2018-01-17T02:22:31.438Z,2.4
2018-01-17T02:23:33.396Z,2.2
2018-01-17T02:24:35.553Z,2.4
2018-01-17T02:25:37.287Z,2.5
2018-01-17T02:26:39.697Z,2.6
2018-01-17T02:27:41.691Z,2.6
2018-01-17T02:28:43.468Z,2.3
2018-01-17T02:29:45.162Z,2.3
2018-01-17T02:30:46.869Z,2.7
2018-01-17T02:31:48.616Z,2.6
2018-01-17T02:32:50.706Z,2.7
2018-01-17T02:33:52.818Z,2.6
2018-01-17T02:34:54.853Z,2.5
2018-01-17T02:35:56.635Z,2.9
2018-01-17T02:36:58.341Z,2.1
2018-01-17T02:38:00.149Z,1.8
2018-01-17T02:39:01.944Z,1.7
2018-01-17T02:40:03.724Z,1.7
2018-01-17T02:41:05.441Z,1.8
2018-01-17T02:42:07.416Z,1.8
2018-01-17T02:43:09.206Z,1.5
2018-01-17T02:44:11.644Z,1.4
2018-01-17T02:45:13.399Z,1.1
2018-01-17T02:46:15.213Z,1.5
2018-01-17T02:47:16.908Z,1.4
2018-01-17T02:48:19.678Z,1.4
2018-01-17T02:49:21.594Z,1.4
2018-01-17T02:50:23.304Z,1.5
2018-01-17T02:51:25.045Z,1.8
2018-01-17T02:52:27.503Z,1.9
2018-01-17T02:53:30.174Z,2.1
2018-01-17T02:54:31.869Z,2.1
2018-01-17T02:55:33.639Z,2.0
2018-01-17T02:56:35.354Z,2.3
2018-01-17T02:57:37.089Z,2.3
2018-01-17T02:58:39.514Z,2.3
2018-01-17T02:59:41.187Z,2.8
2018-01-17T03:00:43.432Z,2.6
2018-01-17T03:01:45.160Z,2.1
2018-01-17T03:02:46.897Z,2.5
2018-01-17T03:03:48.574Z,2.5
2018-01-17T03:04:50.316Z,3.0
2018-01-17T03:05:52.368Z,2.3
2018-01-17T03:06:54.082Z,3.2
2018-01-17T03:07:55.803Z,3.0
2018-01-17T03:08:57.513Z,3.0
2018-01-17T03:09:59.204Z,3.5
2018-01-17T03:11:01.176Z,2.9
2018-01-17T03:12:02.929Z,3.0
2018-01-17T03:13:04.899Z,3.3
2018-01-17T03:14:06.583Z,3.5
2018-01-17T03:15:08.989Z,3.2
2018-01-17T03:16:10.729Z,3.1
2018-01-17T03:17:12.780Z,3.2
2018-01-17T03:18:14.479Z,2.6
2018-01-17T03:19:16.465Z,2.9
2018-01-17T03:20:18.259Z,3.1
2018-01-17T03:21:19.986Z,2.6
2018-01-17T03:22:21.901Z,2.1
2018-01-17T03:23:23.609Z,2.4
2018-01-17T03:24:25.429Z,2.5
2018-01-17T03:25:27.128Z,2.5
2018-01-17T03:26:28.859Z,2.5
2018-01-17T03:27:30.601Z,2.1
2018-01-17T03:28:32.331Z,2.1
2018-01-17T03:29:34.023Z,2.2
2018-01-17T03:30:35.732Z,2.1
2018-01-17T03:31:37.476Z,2.1
2018-01-17T03:32:39.219Z,1.8
2018-01-17T03:33:40.913Z,2.1
2018-01-17T03:34:42.600Z,2.1
2018-01-17T03:35:45.193Z,2.6
2018-01-17T03:36:46.895Z,2.6
2018-01-17T03:37:48.612Z,2.7
2018-01-17T03:38:50.464Z,3.5
2018-01-17T03:39:52.141Z,3.2
2018-01-17T03:40:53.819Z,3.4
2018-01-17T03:41:55.556Z,3.1
2018-01-17T03:42:57.226Z,3.0
2018-01-17T03:43:58.972Z,2.9
2018-01-17T03:45:00.976Z,3.6
2018-01-17T03:46:02.647Z,3.5
2018-01-17T03:47:04.514Z,3.2
2018-01-17T03:48:06.604Z,3.6
2018-01-17T03:49:08.239Z,3.7
2018-01-17T03:50:09.956Z,3.3
2018-01-17T03:51:11.620Z,3.4
2018-01-17T03:52:13.436Z,3.1
2018-01-17T03:53:15.209Z,2.7
2018-01-17T03:54:16.865Z,3.2
2018-01-17T03:55:18.548Z,2.9
2018-01-17T03:56:20.349Z,2.5
2018-01-17T03:57:22.160Z,2.8
2018-01-17T03:58:23.860Z,2.3
2018-01-17T03:59:25.511Z,2.3
2018-01-17T04:00:27.263Z,2.4
2018-01-17T04:01:28.900Z,2.8
2018-01-17T04:02:30.949Z,2.1
2018-01-17T04:03:33.078Z,2.5
2018-01-17T04:04:35.240Z,2.0
2018-01-17T04:05:36.909Z,1.8
2018-01-17T04:06:38.580Z,2.0
2018-01-17T04:07:40.256Z,1.9
2018-01-17T04:08:42.103Z,1.7
2018-01-17T04:09:43.859Z,2.0
2018-01-17T04:10:45.857Z,1.8
2018-01-17T04:11:47.542Z,1.6
2018-01-17T04:12:49.568Z,1.7
2018-01-17T04:13:51.710Z,1.8
2018-01-17T04:14:53.432Z,1.7
2018-01-17T04:15:55.524Z,1.8
2018-01-17T04:16:57.184Z,1.6
2018-01-17T04:17:58.900Z,1.8
2018-01-17T04:19:00.508Z,1.8
2018-01-17T04:20:02.133Z,1.9
2018-01-17T04:21:04.051Z,2.0
2018-01-17T04:22:05.765Z,2.0
2018-01-17T04:23:07.526Z,2.0
2018-01-17T04:24:09.150Z,1.9
2018-01-17T04:25:10.842Z,2.3
2018-01-17T04:26:12.448Z,2.8
2018-01-17T04:27:14.158Z,2.4
2018-01-17T04:28:15.782Z,1.9
2018-01-17T04:29:17.821Z,2.4
2018-01-17T04:30:19.497Z,2.2
2018-01-17T04:31:21.146Z,2.0
2018-01-17T04:32:22.843Z,2.3
2018-01-17T04:33:24.492Z,2.2
2018-01-17T04:34:26.160Z,2.2
2018-01-17T04:35:28.487Z,2.2
2018-01-17T04:36:30.800Z,1.6
2018-01-17T04:37:32.424Z,1.8
2018-01-17T04:38:34.916Z,1.5
2018-01-17T04:39:36.563Z,1.7
2018-01-17T04:40:38.300Z,1.7
2018-01-17T04:41:39.934Z,1.5
2018-01-17T04:42:41.575Z,1.6
2018-01-17T04:43:43.251Z,1.5
2018-01-17T04:44:44.934Z,1.6
2018-01-17T04:45:47.503Z,1.3
2018-01-17T04:46:49.999Z,1.4
2018-01-17T04:47:51.699Z,1.3
2018-01-17T04:48:54.367Z,1.3
2018-01-17T04:49:56.989Z,1.5
2018-01-17T04:50:59.501Z,1.4
2018-01-17T04:52:02.185Z,1.4
2018-01-17T04:53:04.761Z,1.5
2018-01-17T04:54:06.544Z,1.5
2018-01-17T04:55:09.228Z,1.5
2018-01-17T04:56:10.973Z,1.5
2018-01-17T04:57:12.657Z,1.5
2018-01-17T04:58:15.452Z,1.5
2018-01-17T04:59:17.217Z,1.4
2018-01-17T05:00:18.945Z,1.5
2018-01-17T05:01:20.647Z,1.4
2018-01-17T05:02:22.624Z,1.5
2018-01-17T05:03:24.295Z,1.5
2018-01-17T05:04:26.034Z,1.3
2018-01-17T05:05:27.741Z,1.2
2018-01-17T05:06:29.456Z,1.3
2018-01-17T05:07:31.214Z,1.1
2018-01-17T05:08:33.312Z,1.2
2018-01-17T05:09:35.431Z,1.1
2018-01-17T05:10:37.723Z,1.2
2018-01-17T05:11:39.855Z,1.2
2018-01-17T05:12:41.815Z,1.2
2018-01-17T05:13:43.782Z,1.0
2018-01-17T05:14:45.567Z,1.2
2018-01-17T05:15:47.805Z,1.1
2018-01-17T05:16:50.934Z,1.1
2018-01-17T05:17:52.941Z,1.3
2018-01-17T05:18:54.790Z,1.1
2018-01-17T05:19:56.475Z,1.2
2018-01-17T05:20:58.145Z,1.2
2018-01-17T05:22:02.035Z,1.3
2018-01-17T05:23:05.284Z,1.1
2018-01-17T05:24:07.720Z,1.2
2018-01-17T05:25:09.485Z,1.3
2018-01-17T05:26:11.612Z,1.2
2018-01-17T05:27:13.781Z,1.1
2018-01-17T05:28:16.009Z,1.1
2018-01-17T05:29:17.772Z,1.0
2018-01-17T05:30:19.522Z,1.1
2018-01-17T05:31:21.294Z,0.9
2018-01-17T05:32:22.976Z,1.1
2018-01-17T05:33:24.634Z,0.9
2018-01-17T05:34:26.412Z,0.8
2018-01-17T05:35:28.110Z,1.0
2018-01-17T05:36:29.745Z,1.1
2018-01-17T05:37:31.507Z,1.2
2018-01-17T05:40:54.028Z,1.1
2018-01-17T05:41:55.639Z,1.4
2018-01-17T05:42:57.270Z,1.5
2018-01-17T05:43:58.874Z,1.5
2018-01-17T05:45:00.484Z,1.5
2018-01-17T05:46:02.116Z,1.9
2018-01-17T05:47:03.721Z,1.8
2018-01-17T05:48:05.373Z,2.4
2018-01-17T05:49:07.041Z,1.8
2018-01-17T05:50:08.719Z,2.3
2018-01-17T05:51:10.411Z,2.7
2018-01-17T05:52:12.065Z,3.2
2018-01-17T05:53:13.750Z,3.4
2018-01-17T05:54:15.473Z,4.1
2018-01-17T05:55:17.240Z,3.5
2018-01-17T05:56:18.914Z,4.3
2018-01-17T05:57:20.646Z,3.7
2018-01-17T05:58:22.535Z,4.5
2018-01-17T05:59:24.198Z,3.9
2018-01-17T06:00:25.886Z,4.3
2018-01-17T06:01:27.571Z,4.5
2018-01-17T06:02:29.191Z,4.5
2018-01-17T06:03:30.818Z,4.5
2018-01-17T06:04:32.427Z,4.5
2018-01-17T06:05:34.049Z,4.5
2018-01-17T06:06:35.722Z,4.7
2018-01-17T06:07:37.364Z,5.2
2018-01-17T06:08:39.332Z,4.8
2018-01-17T06:09:41.388Z,4.7
2018-01-17T06:10:43.286Z,4.3
2018-01-17T06:11:44.908Z,4.2
2018-01-17T06:12:46.692Z,4.3
2018-01-17T06:13:48.413Z,3.8
2018-01-17T06:14:50.126Z,4.4
2018-01-17T06:15:51.854Z,4.6
2018-01-17T06:16:53.613Z,4.3
2018-01-17T06:17:55.293Z,3.9
2018-01-17T06:18:56.974Z,3.6
2018-01-17T06:19:58.695Z,4.1
2018-01-17T06:21:00.466Z,3.7
2018-01-17T06:22:02.121Z,3.4
2018-01-17T06:23:03.748Z,3.4
2018-01-17T06:24:05.380Z,3.7
2018-01-17T06:25:07.092Z,3.8
2018-01-17T06:26:08.685Z,3.6
2018-01-17T06:27:10.321Z,3.9
2018-01-17T06:28:12.011Z,3.2
2018-01-17T06:29:13.695Z,3.6
2018-01-17T06:30:15.385Z,3.5
2018-01-17T06:31:17.008Z,3.4
2018-01-17T06:32:18.697Z,3.2
2018-01-17T06:33:20.432Z,3.3
2018-01-17T06:34:22.044Z,3.7
2018-01-17T06:35:23.732Z,2.5
2018-01-17T06:36:25.474Z,2.9
2018-01-17T06:37:27.184Z,2.8
2018-01-17T06:38:28.902Z,2.7
2018-01-17T06:39:30.597Z,2.4
2018-01-17T06:40:32.274Z,2.0
2018-01-17T06:41:33.999Z,2.4
2018-01-17T06:42:35.735Z,2.1
2018-01-17T06:43:37.465Z,2.3
2018-01-17T06:44:39.144Z,2.1
2018-01-17T06:45:42.082Z,2.3
2018-01-17T06:46:43.755Z,2.0
2018-01-17T06:47:45.488Z,2.1
2018-01-17T06:48:47.157Z,2.4
2018-01-17T06:49:49.019Z,2.3
2018-01-17T06:50:50.676Z,2.5
2018-01-17T06:51:52.299Z,2.7
2018-01-17T06:52:54.561Z,2.3
2018-01-17T06:53:56.264Z,2.2
2018-01-17T06:54:57.891Z,3.0
2018-01-17T06:55:59.555Z,3.0
2018-01-17T06:57:01.389Z,2.7
2018-01-17T06:58:03.013Z,2.9
2018-01-17T06:59:04.650Z,2.5
2018-01-17T07:00:06.425Z,2.9
2018-01-17T07:01:08.104Z,2.8
2018-01-17T07:02:09.886Z,2.8
2018-01-17T07:03:11.889Z,3.2
2018-01-17T07:04:13.533Z,2.9
2018-01-17T07:05:15.331Z,3.1
2018-01-17T07:06:17.432Z,2.8
2018-01-17T07:07:19.503Z,3.3
2018-01-17T07:08:21.247Z,2.7
2018-01-17T07:09:22.972Z,3.2
2018-01-17T07:10:24.635Z,3.1
2018-01-17T07:11:26.415Z,3.2
2018-01-17T07:12:28.125Z,3.4
2018-01-17T07:13:29.777Z,3.3
2018-01-17T07:14:31.516Z,3.5
2018-01-17T07:15:33.559Z,3.4
2018-01-17T07:16:35.322Z,3.5
2018-01-17T07:17:37.071Z,3.1
2018-01-17T07:18:38.766Z,3.6
2018-01-17T07:19:40.497Z,3.6
2018-01-17T07:20:42.250Z,3.5
2018-01-17T07:21:43.909Z,3.5
2018-01-17T07:22:45.627Z,3.9
2018-01-17T07:23:47.361Z,3.4
2018-01-17T07:24:49.002Z,3.6
2018-01-17T07:25:50.756Z,3.6
2018-01-17T07:26:52.431Z,3.1
2018-01-17T07:27:54.434Z,3.4
2018-01-17T07:28:56.127Z,3.6
2018-01-17T07:29:57.892Z,3.0
2018-01-17T07:30:59.548Z,3.7
2018-01-17T07:32:01.196Z,3.3
2018-01-17T07:33:02.832Z,3.5
2018-01-17T07:34:04.495Z,3.3
2018-01-17T07:35:06.109Z,3.0
2018-01-17T07:36:07.874Z,3.3
2018-01-17T07:37:09.603Z,3.1
2018-01-17T07:38:11.321Z,3.6
2018-01-17T07:39:13.208Z,3.2
2018-01-17T07:40:15.021Z,3.0
2018-01-17T07:41:16.756Z,3.1
2018-01-17T07:42:18.899Z,3.6
2018-01-17T07:43:21.456Z,3.1
2018-01-17T07:44:24.110Z,3.0
2018-01-17T07:45:26.594Z,3.0
2018-01-17T07:46:28.313Z,3.5
2018-01-17T07:47:30.064Z,3.5
2018-01-17T07:48:31.828Z,2.9
2018-01-17T07:49:33.559Z,3.6
2018-01-17T07:50:35.254Z,2.9
2018-01-17T07:51:37.741Z,2.8
2018-01-17T07:52:40.296Z,3.1
2018-01-17T07:53:42.612Z,2.9
2018-01-17T07:54:44.913Z,2.5
2018-01-17T07:55:46.900Z,2.7
2018-01-17T07:56:49.479Z,3.1
2018-01-17T07:57:52.011Z,3.0
2018-01-17T07:58:54.677Z,3.0
2018-01-17T07:59:56.396Z,3.3
2018-01-17T08:00:59.120Z,3.0
2018-01-17T08:02:01.354Z,2.8
2018-01-17T08:03:03.130Z,2.6
2018-01-17T08:04:05.226Z,2.9
2018-01-17T08:05:07.587Z,2.8
2018-01-17T08:06:11.041Z,3.1
2018-01-17T08:07:13.840Z,3.3
2018-01-17T08:08:16.609Z,3.3
2018-01-17T08:09:18.819Z,3.2
2018-01-17T08:10:21.098Z,3.4
2018-01-17T08:11:22.846Z,3.4
2018-01-17T08:12:24.588Z,3.5
2018-01-17T08:13:26.269Z,3.7
2018-01-17T08:14:28.001Z,3.5
2018-01-17T08:15:30.110Z,3.8
2018-01-17T08:16:32.139Z,3.7
2018-01-17T08:17:34.747Z,3.6
2018-01-17T08:18:36.558Z,4.2
2018-01-17T08:19:38.280Z,3.8
2018-01-17T08:20:40.631Z,4.0
2018-01-17T08:21:42.645Z,3.5
2018-01-17T08:22:44.367Z,3.9
2018-01-17T08:23:46.120Z,3.9
2018-01-17T08:24:48.148Z,4.3
2018-01-17T08:25:50.644Z,4.0
2018-01-17T08:26:53.228Z,4.4
2018-01-17T08:27:55.943Z,4.0
2018-01-17T08:28:57.742Z,4.0
2018-01-17T08:30:00.302Z,4.3
2018-01-17T08:31:02.462Z,4.9
2018-01-17T08:32:04.761Z,4.9
2018-01-17T08:33:06.508Z,4.7
2018-01-17T08:34:08.408Z,4.9
2018-01-17T08:35:10.133Z,5.1
2018-01-17T08:36:11.929Z,4.9
2018-01-17T08:37:13.642Z,5.4
2018-01-17T08:38:15.389Z,5.2
2018-01-17T08:39:17.085Z,5.5
2018-01-17T08:40:18.839Z,6.1
2018-01-17T08:41:20.585Z,4.9
2018-01-17T08:42:23.129Z,5.0
2018-01-17T08:43:24.829Z,4.8
2018-01-17T08:44:26.500Z,5.2
2018-01-17T08:45:29.114Z,4.7
2018-01-17T08:46:31.297Z,5.4
2018-01-17T08:47:32.978Z,5.5
2018-01-17T08:48:35.027Z,4.8
2018-01-17T08:49:36.758Z,4.9
2018-01-17T08:50:39.072Z,5.6
2018-01-17T08:51:40.829Z,4.9
2018-01-17T08:52:43.196Z,5.5
2018-01-17T08:53:45.348Z,5.0
2018-01-17T08:54:47.069Z,5.6
2018-01-17T08:55:49.292Z,5.7
2018-01-17T08:56:51.581Z,5.3
2018-01-17T08:57:54.027Z,5.4
2018-01-17T08:58:56.443Z,5.5
2018-01-17T08:59:58.402Z,5.5
2018-01-17T09:01:00.100Z,5.4
2018-01-17T09:02:01.838Z,5.6
2018-01-17T09:03:03.575Z,5.5
2018-01-17T09:04:05.254Z,5.2
2018-01-17T09:05:06.980Z,6.0
2018-01-17T09:06:08.662Z,5.8
2018-01-17T09:07:10.471Z,5.4
2018-01-17T09:08:12.171Z,5.8
2018-01-17T09:09:13.861Z,5.4
2018-01-17T09:10:16.433Z,5.4
2018-01-17T09:11:18.238Z,4.9
2018-01-17T09:12:19.929Z,5.4
2018-01-17T09:13:22.452Z,5.1
2018-01-17T09:14:24.189Z,5.0
2018-01-17T09:15:25.961Z,5.8
2018-01-17T09:16:27.693Z,5.1
2018-01-17T09:17:29.549Z,5.2
2018-01-17T09:18:31.262Z,5.3
2018-01-17T09:19:33.028Z,4.6
2018-01-17T09:20:35.059Z,5.0
2018-01-17T09:21:37.860Z,4.8
2018-01-17T09:22:40.112Z,4.5
2018-01-17T09:23:41.908Z,4.8
2018-01-17T09:24:43.748Z,4.5
2018-01-17T09:25:46.142Z,4.2
2018-01-17T09:26:48.478Z,4.8
2018-01-17T09:27:50.711Z,4.4
2018-01-17T09:28:52.810Z,4.6
2018-01-17T09:29:55.497Z,4.7
2018-01-17T09:30:58.224Z,4.9
2018-01-17T09:32:00.327Z,4.7
2018-01-17T09:33:02.159Z,4.8
2018-01-17T09:34:05.491Z,5.1
2018-01-17T09:35:07.391Z,5.1
2018-01-17T09:36:09.209Z,5.1
2018-01-17T09:37:11.020Z,4.9
2018-01-17T09:38:13.473Z,5.0
2018-01-17T09:39:15.217Z,5.2
2018-01-17T09:40:17.876Z,5.0
2018-01-17T09:41:19.685Z,5.5
2018-01-17T09:42:21.538Z,4.7
2018-01-17T09:43:23.457Z,4.7
2018-01-17T09:44:25.226Z,4.5
2018-01-17T09:45:27.261Z,4.6
2018-01-17T09:46:29.023Z,4.8
2018-01-17T09:47:30.843Z,4.8
2018-01-17T09:48:33.019Z,4.8
2018-01-17T09:49:35.520Z,5.1
2018-01-17T09:50:37.349Z,4.7
2018-01-17T09:51:39.700Z,4.6
2018-01-17T09:52:41.461Z,4.8
2018-01-17T09:53:43.220Z,4.7
2018-01-17T09:54:45.033Z,4.5
2018-01-17T09:55:47.909Z,4.1
2018-01-17T09:56:49.997Z,3.7
2018-01-17T09:57:52.604Z,4.0
2018-01-17T09:58:54.350Z,4.4
2018-01-17T09:59:56.589Z,3.7
2018-01-17T10:00:59.081Z,3.8
2018-01-17T10:02:01.458Z,3.7
2018-01-17T10:03:03.822Z,4.3
2018-01-17T10:04:05.859Z,3.8
2018-01-17T10:05:07.645Z,3.5
2018-01-17T10:06:09.560Z,3.9
2018-01-17T10:07:13.020Z,4.1
2018-01-17T10:08:15.267Z,3.7
2018-01-17T10:09:18.029Z,4.2
2018-01-17T10:10:20.432Z,4.0
2018-01-17T10:11:22.710Z,4.3
2018-01-17T10:12:24.616Z,4.0
2018-01-17T10:13:26.731Z,3.9
2018-01-17T10:14:29.130Z,4.2
2018-01-17T10:15:30.986Z,4.4
2018-01-17T10:16:33.587Z,4.5
2018-01-17T10:17:35.751Z,4.3
2018-01-17T10:18:38.465Z,3.8
2018-01-17T10:19:40.914Z,4.0
2018-01-17T10:20:43.304Z,4.4
2018-01-17T10:21:45.756Z,4.4
2018-01-17T10:22:48.523Z,3.8
2018-01-17T10:23:50.840Z,3.8
2018-01-17T10:24:53.473Z,4.1
2018-01-17T10:25:55.939Z,4.3
2018-01-17T10:26:58.287Z,4.2
2018-01-17T10:28:00.458Z,3.8
2018-01-17T10:29:03.228Z,4.0
2018-01-17T10:30:06.594Z,3.8
2018-01-17T10:31:10.015Z,4.1
2018-01-17T10:32:13.094Z,3.5
2018-01-17T10:33:16.105Z,3.8
2018-01-17T10:34:19.157Z,3.9
2018-01-17T10:35:21.664Z,3.9
2018-01-17T10:36:24.361Z,3.9
2018-01-17T10:37:27.432Z,3.6
2018-01-17T10:38:29.924Z,4.2
2018-01-17T10:39:32.632Z,4.0
2018-01-17T10:40:35.302Z,4.2
2018-01-17T10:41:38.026Z,4.2
2018-01-17T10:42:40.500Z,4.7
2018-01-17T10:43:42.992Z,4.6
2018-01-17T10:44:45.289Z,4.6
2018-01-17T10:45:48.547Z,4.5
2018-01-17T10:46:50.911Z,4.3
2018-01-17T10:47:53.295Z,3.8
2018-01-17T10:48:55.669Z,4.5
2018-01-17T10:49:57.963Z,4.3
2018-01-17T10:51:00.649Z,4.4
2018-01-17T10:52:03.415Z,5.0
2018-01-17T10:53:06.194Z,5.0
2018-01-17T10:54:08.782Z,4.9
2018-01-17T10:55:11.428Z,5.2
2018-01-17T10:56:13.717Z,5.6
2018-01-17T10:57:16.333Z,5.2
2018-01-17T10:58:19.488Z,5.4
2018-01-17T10:59:22.316Z,4.9
2018-01-17T11:00:24.322Z,5.3
2018-01-17T11:01:26.638Z,5.4
2018-01-17T11:02:28.548Z,5.4
2018-01-17T11:03:30.678Z,5.2
2018-01-17T11:04:33.596Z,5.2
2018-01-17T11:05:35.355Z,6.0
2018-01-17T11:06:37.288Z,5.9
2018-01-17T11:07:39.423Z,5.3
2018-01-17T11:08:41.603Z,5.8
2018-01-17T11:09:43.886Z,5.7
2018-01-17T11:10:46.188Z,5.9
2018-01-17T11:11:48.728Z,5.7
2018-01-17T11:12:51.004Z,6.0
2018-01-17T11:13:53.310Z,5.7
2018-01-17T11:14:55.543Z,6.2
2018-01-17T11:15:57.615Z,5.4
2018-01-17T11:16:59.842Z,6.6
2018-01-17T11:18:02.393Z,5.8
2018-01-17T11:19:04.741Z,5.5
2018-01-17T11:20:06.972Z,5.1
2018-01-17T11:21:08.912Z,5.1
2018-01-17T11:22:11.166Z,5.3
2018-01-17T11:23:13.466Z,5.2
2018-01-17T11:24:15.840Z,4.8
2018-01-17T11:25:17.851Z,4.2
2018-01-17T11:26:20.054Z,4.4
2018-01-17T11:27:22.315Z,4.6
2018-01-17T11:28:25.321Z,4.6
2018-01-17T11:29:27.867Z,4.3
2018-01-17T11:30:30.787Z,4.9
2018-01-17T11:31:33.563Z,5.1
2018-01-17T11:32:36.056Z,5.3
2018-01-17T11:33:37.952Z,4.9
2018-01-17T11:34:39.775Z,4.7
2018-01-17T11:35:41.549Z,4.7
2018-01-17T11:36:44.131Z,4.8
2018-01-17T11:37:45.921Z,4.8
2018-01-17T11:38:48.504Z,4.8
2018-01-17T11:39:50.683Z,4.6
2018-01-17T11:40:53.004Z,5.2
2018-01-17T11:41:55.161Z,4.7
2018-01-17T11:42:57.048Z,5.1
2018-01-17T11:43:58.948Z,5.6
2018-01-17T11:45:02.039Z,4.8
2018-01-17T11:46:04.337Z,5.0
2018-01-17T11:47:06.470Z,5.1
2018-01-17T11:48:08.555Z,5.2
2018-01-17T11:49:10.809Z,6.2
2018-01-17T11:50:12.717Z,6.0
2018-01-17T11:51:15.240Z,5.6
2018-01-17T11:52:17.324Z,5.5
2018-01-17T11:53:19.392Z,5.5
2018-01-17T11:54:21.687Z,5.7
2018-01-17T11:55:23.673Z,5.6
2018-01-17T11:56:26.122Z,6.2
2018-01-17T11:57:28.300Z,6.5
2018-01-17T11:58:30.504Z,6.7
2018-01-17T11:59:32.959Z,6.5
2018-01-17T12:00:35.286Z,7.3
2018-01-17T12:01:37.830Z,7.0
2018-01-17T12:02:40.020Z,7.2
2018-01-17T12:03:42.166Z,6.6
2018-01-17T12:04:44.521Z,7.2
2018-01-17T12:05:46.813Z,6.6
2018-01-17T12:06:48.841Z,7.3
2018-01-17T12:07:50.963Z,6.5
2018-01-17T12:08:53.011Z,6.7
2018-01-17T12:09:55.393Z,7.1
2018-01-17T12:10:57.735Z,6.9
2018-01-17T12:11:59.816Z,7.6
2018-01-17T12:13:02.621Z,6.9
2018-01-17T12:14:04.705Z,6.7
2018-01-17T12:15:07.050Z,6.8
2018-01-17T12:16:09.339Z,6.3
2018-01-17T12:17:11.389Z,7.2
2018-01-17T12:18:13.374Z,6.8
2018-01-17T12:19:15.743Z,7.1
2018-01-17T12:20:19.072Z,6.9
2018-01-17T12:21:22.148Z,6.5
2018-01-17T12:22:25.170Z,6.3
2018-01-17T12:23:28.546Z,5.3
2018-01-17T12:24:30.830Z,5.5
2018-01-17T12:25:32.855Z,5.8
2018-01-17T12:26:35.272Z,5.9
2018-01-17T12:27:37.302Z,5.7
2018-01-17T12:28:39.184Z,5.4
2018-01-17T12:29:41.339Z,5.5
2018-01-17T12:30:43.432Z,5.1
2018-01-17T12:31:45.602Z,4.7
2018-01-17T12:32:48.311Z,4.9
2018-01-17T12:33:50.862Z,5.5
2018-01-17T12:34:52.823Z,4.3
2018-01-17T12:35:54.664Z,4.2
2018-01-17T12:36:56.804Z,4.6
2018-01-17T12:37:58.540Z,4.3
2018-01-17T12:39:00.441Z,4.8
2018-01-17T12:40:02.565Z,4.4
2018-01-17T12:41:04.932Z,4.5
2018-01-17T12:42:06.719Z,4.3
2018-01-17T12:43:08.499Z,4.0
2018-01-17T12:44:10.375Z,4.1
2018-01-17T12:45:12.071Z,4.1
2018-01-17T12:46:13.939Z,4.4
2018-01-17T12:47:16.587Z,4.5
2018-01-17T12:48:18.284Z,3.9
2018-01-17T12:49:19.976Z,4.1
2018-01-17T12:50:22.035Z,4.4
2018-01-17T12:51:24.150Z,3.6
2018-01-17T12:52:26.188Z,4.4
2018-01-17T12:53:27.895Z,4.3
2018-01-17T12:54:29.932Z,4.0
2018-01-17T12:55:31.764Z,4.0
2018-01-17T12:56:33.657Z,4.4
2018-01-17T12:57:35.323Z,4.3
2018-01-17T12:58:37.172Z,4.2
2018-01-17T12:59:38.951Z,4.6
2018-01-17T13:00:41.260Z,5.3
2018-01-17T13:01:43.501Z,4.8
2018-01-17T13:02:45.395Z,4.4
2018-01-17T13:03:47.701Z,4.6
2018-01-17T13:04:49.753Z,4.6
2018-01-17T13:05:51.456Z,4.8
2018-01-17T13:06:53.263Z,5.3
2018-01-17T13:07:55.340Z,4.7
2018-01-17T13:08:57.412Z,4.6
2018-01-17T13:09:59.323Z,5.0
2018-01-17T13:11:01.498Z,5.6
2018-01-17T13:12:03.691Z,5.4
2018-01-17T13:13:05.739Z,5.7
2018-01-17T13:14:07.597Z,5.4
2018-01-17T13:15:09.400Z,5.1
2018-01-17T13:16:11.161Z,5.7
2018-01-17T13:17:13.117Z,5.0
2018-01-17T13:18:14.830Z,5.3
2018-01-17T13:19:16.525Z,5.3
2018-01-17T13:20:18.261Z,5.8
2018-01-17T13:21:19.970Z,5.8
2018-01-17T13:22:21.702Z,5.4
2018-01-17T13:23:23.428Z,5.5
2018-01-17T13:24:25.119Z,5.9
2018-01-17T13:25:26.852Z,5.9
2018-01-17T13:26:28.565Z,5.3
2018-01-17T13:27:30.522Z,5.2
2018-01-17T13:28:33.460Z,5.4
2018-01-17T13:29:35.651Z,5.2
2018-01-17T13:30:38.006Z,5.2
2018-01-17T13:31:39.779Z,5.8
2018-01-17T13:32:41.495Z,5.2
2018-01-17T13:33:43.214Z,5.2
2018-01-17T13:34:45.060Z,5.2
2018-01-17T13:35:47.069Z,5.3
2018-01-17T13:36:48.901Z,5.6
2018-01-17T13:37:50.942Z,5.5
2018-01-17T13:38:52.888Z,5.2
2018-01-17T13:39:54.677Z,6.6
2018-01-17T13:40:56.829Z,5.8
2018-01-17T13:41:58.696Z,5.3
2018-01-17T13:43:00.605Z,5.4
2018-01-17T13:44:02.390Z,5.0
2018-01-17T13:45:04.816Z,4.8
2018-01-17T13:46:07.110Z,5.2
2018-01-17T13:47:08.985Z,5.3
2018-01-17T13:48:11.406Z,4.9
2018-01-17T13:49:13.208Z,4.6
2018-01-17T13:50:15.014Z,5.0
2018-01-17T13:51:16.710Z,5.1
2018-01-17T13:52:19.193Z,4.9
2018-01-17T13:53:21.890Z,5.2
2018-01-17T13:54:23.623Z,5.1
2018-01-17T13:55:25.304Z,6.1
2018-01-17T13:56:27.441Z,5.9
2018-01-17T13:57:29.189Z,6.3
2018-01-17T13:58:31.437Z,6.2
2018-01-17T13:59:33.619Z,5.8
2018-01-17T14:00:35.371Z,5.8
2018-01-17T14:01:38.219Z,6.7
2018-01-17T14:02:40.022Z,6.1
2018-01-17T14:03:41.748Z,6.2
2018-01-17T14:04:43.908Z,6.3
2018-01-17T14:05:46.170Z,6.0
2018-01-17T14:06:47.895Z,6.0
2018-01-17T14:07:49.618Z,6.5
2018-01-17T14:08:51.348Z,6.0
2018-01-17T14:09:53.417Z,6.2
2018-01-17T14:10:55.134Z,5.7
2018-01-17T14:11:56.867Z,5.7
2018-01-17T14:12:58.590Z,5.4
2018-01-17T14:14:00.379Z,5.6
2018-01-17T14:15:02.767Z,6.2
2018-01-17T14:16:04.505Z,6.1